This is the latest recevied weather packets stored in our database for station/object DG1ROH. If no packets are shown the sender has not sent any weather packets the latest 1 day(s).
| Time | Temp. | Humidity | Pressure | Rain* | Wind** | Luminosity | Snow |
|---|---|---|---|---|---|---|---|
| 1777971237 | 14.44° C | 91% | 1009.2 hPa | 0 mm | 0.45 m/s, 42° | 165 W/m² | - |
| 1777971117 | 14.44° C | 91% | 1009.2 hPa | 0 mm | 0.45 m/s, 42° | 163 W/m² | - |
| 1777970994 | 14.44° C | 92% | 1009.2 hPa | 0 mm | 0.45 m/s, 42° | 165 W/m² | - |
| 1777970873 | 14.44° C | 92% | 1009.2 hPa | 0 mm | 0.45 m/s, 37° | 179 W/m² | - |
| 1777970752 | 14.44° C | 92% | 1009.2 hPa | 0 mm | 0.45 m/s, 49° | 183 W/m² | - |
| 1777970632 | 13.89° C | 92% | 1009.2 hPa | 0 mm | 0.45 m/s, 49° | 179 W/m² | - |
| 1777970517 | 13.89° C | 92% | 1009.2 hPa | 0 mm | 0.45 m/s, 49° | 167 W/m² | - |
| 1777970393 | 14.44° C | 92% | 1009.2 hPa | 0 mm | 0.45 m/s, 48° | 165 W/m² | - |
| 1777970273 | 13.89° C | 92% | 1009.1 hPa | 0 mm | 0 m/s | 165 W/m² | - |
| 1777970152 | 13.89° C | 92% | 1009.2 hPa | 0 mm | 0 m/s | 179 W/m² | - |
| 1777970030 | 13.89° C | 93% | 1009.3 hPa | 0 mm | 0 m/s | 183 W/m² | - |
| 1777969908 | 13.89° C | 93% | 1009.2 hPa | 0 mm | 0 m/s | 185 W/m² | - |
| 1777969789 | 13.89° C | 93% | 1009.3 hPa | 0 mm | 0 m/s | 171 W/m² | - |
| 1777969668 | 13.89° C | 93% | 1009.2 hPa | 0 mm | 0 m/s | 153 W/m² | - |
| 1777969548 | 13.89° C | 92% | 1009.3 hPa | 0 mm | 0 m/s | 141 W/m² | - |
| 1777969428 | 13.89° C | 92% | 1009.3 hPa | 0 mm | 0.45 m/s, 142° | 127 W/m² | - |
| 1777969309 | 13.89° C | 93% | 1009.3 hPa | 0 mm | 0.45 m/s, 142° | 118 W/m² | - |
| 1777969189 | 13.89° C | 93% | 1009.3 hPa | 0 mm | 0.45 m/s, 142° | 111 W/m² | - |
| 1777969069 | 13.89° C | 93% | 1009.2 hPa | 0 mm | 0.45 m/s, 142° | 113 W/m² | - |
| 1777968947 | 13.89° C | 93% | 1009.3 hPa | 0 mm | 0.45 m/s, 115° | 120 W/m² | - |
| 1777968830 | 13.89° C | 93% | 1009.2 hPa | 0 mm | 0.45 m/s, 78° | 137 W/m² | - |
| 1777968709 | 13.89° C | 92% | 1009.3 hPa | 0 mm | 0.45 m/s, 78° | 148 W/m² | - |
| 1777968587 | 13.89° C | 93% | 1009.3 hPa | 0 mm | 0.45 m/s, 78° | 153 W/m² | - |
| 1777968465 | 13.89° C | 93% | 1009.3 hPa | 0 mm | 0.45 m/s, 78° | 162 W/m² | - |
| 1777968342 | 13.89° C | 93% | 1009.2 hPa | 0 mm | 0.45 m/s, 81° | 163 W/m² | - |
* Rain latest hour (hover to see other rain measurements)
** Current wind speed in m/s (hover to see current wind gust speed)